createdAt,value
2018-05-27T00:00:13.679Z,0.00
2018-05-27T00:01:13.873Z,0.00
2018-05-27T00:02:14.057Z,0.00
2018-05-27T00:03:14.249Z,0.00
2018-05-27T00:04:14.432Z,0.00
2018-05-27T00:05:14.596Z,0.00
2018-05-27T00:06:14.787Z,0.00
2018-05-27T00:07:14.959Z,0.00
2018-05-27T00:08:15.145Z,0.00
2018-05-27T00:09:15.329Z,0.00
2018-05-27T00:10:15.505Z,0.00
2018-05-27T00:11:15.698Z,0.00
2018-05-27T00:12:15.873Z,0.00
2018-05-27T00:13:16.069Z,0.00
2018-05-27T00:14:16.248Z,0.00
2018-05-27T00:15:16.420Z,0.00
2018-05-27T00:16:16.619Z,0.00
2018-05-27T00:17:16.783Z,0.00
2018-05-27T00:18:16.967Z,0.00
2018-05-27T00:19:17.148Z,0.00
2018-05-27T00:20:17.335Z,0.00
2018-05-27T00:21:17.519Z,0.00
2018-05-27T00:22:17.723Z,0.00
2018-05-27T00:23:17.883Z,0.00
2018-05-27T00:24:18.067Z,0.00
2018-05-27T00:25:18.253Z,0.00
2018-05-27T00:26:18.437Z,0.00
2018-05-27T00:27:18.622Z,0.00
2018-05-27T00:28:18.789Z,0.00
2018-05-27T00:29:18.974Z,0.00
2018-05-27T00:30:19.164Z,0.00
2018-05-27T00:31:19.339Z,0.00
2018-05-27T00:32:19.529Z,0.00
2018-05-27T00:33:19.719Z,0.00
2018-05-27T00:34:19.899Z,0.00
2018-05-27T00:35:20.103Z,0.00
2018-05-27T00:36:20.266Z,0.00
2018-05-27T00:37:20.450Z,0.00
2018-05-27T00:38:20.622Z,0.00
2018-05-27T00:39:20.814Z,0.00
2018-05-27T00:40:20.976Z,0.00
2018-05-27T00:41:21.164Z,0.00
2018-05-27T00:42:21.351Z,0.00
2018-05-27T00:43:21.531Z,0.00
2018-05-27T00:44:21.722Z,0.00
2018-05-27T00:45:21.921Z,0.00
2018-05-27T00:46:22.105Z,0.00
2018-05-27T00:47:22.297Z,0.00
2018-05-27T00:48:22.474Z,0.00
2018-05-27T00:49:22.658Z,0.00
2018-05-27T00:50:22.843Z,0.00
2018-05-27T00:51:23.030Z,0.00
2018-05-27T00:52:23.206Z,0.00
2018-05-27T00:53:23.392Z,0.00
2018-05-27T00:54:23.568Z,0.00
2018-05-27T00:55:23.747Z,0.00
2018-05-27T00:56:23.934Z,0.00
2018-05-27T00:57:24.112Z,0.00
2018-05-27T00:58:24.297Z,0.00
2018-05-27T00:59:24.462Z,0.00
2018-05-27T01:00:24.686Z,0.00
2018-05-27T01:01:24.835Z,0.00
2018-05-27T01:02:25.020Z,0.00
2018-05-27T01:03:25.215Z,0.00
2018-05-27T01:04:25.369Z,0.00
2018-05-27T01:05:25.554Z,0.00
2018-05-27T01:06:25.740Z,0.00
2018-05-27T01:07:25.931Z,0.00
2018-05-27T01:08:26.110Z,0.00
2018-05-27T01:09:26.299Z,0.00
2018-05-27T01:10:26.508Z,0.00
2018-05-27T01:11:26.661Z,0.00
2018-05-27T01:12:26.835Z,0.00
2018-05-27T01:13:27.033Z,0.00
2018-05-27T01:14:27.249Z,0.00
2018-05-27T01:15:27.415Z,0.00
2018-05-27T01:16:27.597Z,0.00
2018-05-27T01:17:27.790Z,0.00
2018-05-27T01:18:27.950Z,0.00
2018-05-27T01:19:28.135Z,0.00
2018-05-27T01:20:28.326Z,0.00
2018-05-27T01:21:28.506Z,0.00
2018-05-27T01:22:28.685Z,0.00
2018-05-27T01:23:28.873Z,0.00
2018-05-27T01:24:29.049Z,0.00
2018-05-27T01:25:29.225Z,0.00
2018-05-27T01:26:29.404Z,0.00
2018-05-27T01:27:29.604Z,0.00
2018-05-27T01:28:29.774Z,0.00
2018-05-27T01:29:29.964Z,0.00
2018-05-27T01:30:30.140Z,0.00
2018-05-27T01:31:30.338Z,0.00
2018-05-27T01:32:30.529Z,0.00
2018-05-27T01:33:30.705Z,0.00
2018-05-27T01:34:30.902Z,0.00
2018-05-27T01:35:31.097Z,0.00
2018-05-27T01:36:31.263Z,0.00
2018-05-27T01:37:31.447Z,0.00
2018-05-27T01:38:31.642Z,0.00
2018-05-27T01:39:31.810Z,0.00
2018-05-27T01:40:31.977Z,0.00
2018-05-27T01:41:32.172Z,0.00
2018-05-27T01:42:32.378Z,0.00
2018-05-27T01:43:32.540Z,0.00
2018-05-27T01:44:32.786Z,0.00
2018-05-27T01:45:32.911Z,0.00
2018-05-27T01:46:33.103Z,0.00
2018-05-27T01:47:33.264Z,0.00
2018-05-27T01:48:40.184Z,0.00
2018-05-27T01:49:33.632Z,0.00
2018-05-27T01:50:33.799Z,0.00
2018-05-27T01:51:33.985Z,0.00
2018-05-27T01:52:34.165Z,0.00
2018-05-27T01:53:34.347Z,0.00
2018-05-27T01:54:34.520Z,0.00
2018-05-27T01:55:34.702Z,0.00
2018-05-27T01:56:34.889Z,0.00
2018-05-27T01:57:35.076Z,0.00
2018-05-27T01:58:35.278Z,0.00
2018-05-27T01:59:35.470Z,0.00
2018-05-27T02:00:35.631Z,0.00
2018-05-27T02:01:35.818Z,0.00
2018-05-27T02:02:36.000Z,0.00
2018-05-27T02:03:36.176Z,0.00
2018-05-27T02:04:36.355Z,0.00
2018-05-27T02:05:36.567Z,0.00
2018-05-27T02:06:36.721Z,0.00
2018-05-27T02:07:36.912Z,0.00
2018-05-27T02:08:37.094Z,0.00
2018-05-27T02:09:37.277Z,0.00
2018-05-27T02:10:37.464Z,0.00
2018-05-27T02:11:37.666Z,0.00
2018-05-27T02:12:37.847Z,0.00
2018-05-27T02:13:38.031Z,0.00
2018-05-27T02:14:38.207Z,0.00
2018-05-27T02:15:38.412Z,0.00
2018-05-27T02:16:38.578Z,0.00
2018-05-27T02:17:38.788Z,0.00
2018-05-27T02:18:38.936Z,0.00
2018-05-27T02:19:39.143Z,0.00
2018-05-27T02:20:39.313Z,0.00
2018-05-27T02:21:39.493Z,0.00
2018-05-27T02:22:39.664Z,0.00
2018-05-27T02:23:39.846Z,0.00
2018-05-27T02:24:40.021Z,0.00
2018-05-27T02:25:40.195Z,0.00
2018-05-27T02:26:40.372Z,0.00
2018-05-27T02:27:40.558Z,0.00
2018-05-27T02:28:40.753Z,0.00
2018-05-27T02:29:40.904Z,0.00
2018-05-27T02:30:41.151Z,0.00
2018-05-27T02:31:41.289Z,0.00
2018-05-27T02:32:41.472Z,0.00
2018-05-27T02:33:41.655Z,0.00
2018-05-27T02:34:41.844Z,0.00
2018-05-27T02:35:41.998Z,0.00
2018-05-27T02:36:42.190Z,4.00
2018-05-27T02:37:42.361Z,4.00
2018-05-27T02:38:42.545Z,4.00
2018-05-27T02:39:42.746Z,0.00
2018-05-27T02:40:42.907Z,4.00
2018-05-27T02:41:43.139Z,4.00
2018-05-27T02:42:43.270Z,4.00
2018-05-27T02:43:43.479Z,4.00
2018-05-27T02:44:43.663Z,4.00
2018-05-27T02:45:43.812Z,4.00
2018-05-27T02:46:43.990Z,8.00
2018-05-27T02:47:44.173Z,4.00
2018-05-27T02:48:44.362Z,8.00
2018-05-27T02:49:44.534Z,8.00
2018-05-27T02:50:44.714Z,12.00
2018-05-27T02:51:44.894Z,12.00
2018-05-27T02:52:45.090Z,12.00
2018-05-27T02:53:45.272Z,16.00
2018-05-27T02:54:45.452Z,16.00
2018-05-27T02:55:45.637Z,20.00
2018-05-27T02:56:45.832Z,20.00
2018-05-27T02:57:46.001Z,24.00
2018-05-27T02:58:46.182Z,28.00
2018-05-27T02:59:46.372Z,36.00
2018-05-27T03:00:46.546Z,40.00
2018-05-27T03:01:46.729Z,44.00
2018-05-27T03:02:46.893Z,48.00
2018-05-27T03:03:47.079Z,56.00
2018-05-27T03:04:47.256Z,60.00
2018-05-27T03:05:47.447Z,68.00
2018-05-27T03:06:47.610Z,72.00
2018-05-27T03:07:47.813Z,80.00
2018-05-27T03:08:47.986Z,88.00
2018-05-27T03:09:48.211Z,100.00
2018-05-27T03:10:48.361Z,108.00
2018-05-27T03:11:48.540Z,116.00
2018-05-27T03:12:48.727Z,128.00
2018-05-27T03:13:48.890Z,140.00
2018-05-27T03:14:49.084Z,148.00
2018-05-27T03:15:49.286Z,164.00
2018-05-27T03:16:49.490Z,180.00
2018-05-27T03:17:49.656Z,192.00
2018-05-27T03:18:49.841Z,208.00
2018-05-27T03:19:50.025Z,220.00
2018-05-27T03:20:50.224Z,240.00
2018-05-27T03:21:50.397Z,256.00
2018-05-27T03:22:50.583Z,276.00
2018-05-27T03:23:50.771Z,296.00
2018-05-27T03:24:50.957Z,312.00
2018-05-27T03:25:51.145Z,340.00
2018-05-27T03:26:51.325Z,360.00
2018-05-27T03:27:51.503Z,392.00
2018-05-27T03:28:51.689Z,416.00
2018-05-27T03:29:51.869Z,448.00
2018-05-27T03:30:52.054Z,480.00
2018-05-27T03:31:52.240Z,516.00
2018-05-27T03:32:52.431Z,552.00
2018-05-27T03:33:52.616Z,588.00
2018-05-27T03:34:52.783Z,628.00
2018-05-27T03:35:52.966Z,664.00
2018-05-27T03:36:53.152Z,704.00
2018-05-27T03:37:53.354Z,748.00
2018-05-27T03:38:53.545Z,796.00
2018-05-27T03:39:53.694Z,836.00
2018-05-27T03:40:53.897Z,884.00
2018-05-27T03:41:54.062Z,932.00
2018-05-27T03:42:54.253Z,980.00
2018-05-27T03:43:54.472Z,1032.00
2018-05-27T03:44:54.615Z,1080.00
2018-05-27T03:45:54.795Z,1128.00
2018-05-27T03:46:54.977Z,1180.00
2018-05-27T03:47:55.152Z,1236.00
2018-05-27T03:48:55.338Z,1296.00
2018-05-27T03:49:55.523Z,1352.00
2018-05-27T03:50:55.701Z,1416.00
2018-05-27T03:51:55.899Z,1480.00
2018-05-27T03:52:56.074Z,1552.00
2018-05-27T03:53:56.263Z,1620.00
2018-05-27T03:54:56.461Z,1688.00
2018-05-27T03:55:56.635Z,1760.00
2018-05-27T03:56:56.812Z,1832.00
2018-05-27T03:57:56.998Z,1904.00
2018-05-27T03:58:57.180Z,1980.00
2018-05-27T03:59:57.374Z,2060.00
2018-05-27T04:00:57.557Z,2144.00
2018-05-27T04:01:57.730Z,2232.00
2018-05-27T04:02:57.913Z,2320.00
2018-05-27T04:03:58.108Z,2408.00
2018-05-27T04:04:58.286Z,2504.00
2018-05-27T04:05:58.496Z,2584.00
2018-05-27T04:06:58.656Z,2768.00
2018-05-27T04:07:58.844Z,2892.00
2018-05-27T04:08:59.036Z,2872.00
2018-05-27T04:09:59.209Z,2920.00
2018-05-27T04:10:59.399Z,3004.00
2018-05-27T04:11:59.587Z,3064.00
2018-05-27T04:12:59.752Z,3204.00
2018-05-27T04:13:59.942Z,3316.00
2018-05-27T04:15:00.138Z,3476.00
2018-05-27T04:16:00.323Z,3544.00
2018-05-27T04:17:00.505Z,3552.00
2018-05-27T04:18:00.683Z,3636.00
2018-05-27T04:19:00.856Z,3744.00
2018-05-27T04:20:01.061Z,3844.00
2018-05-27T04:21:01.222Z,3952.00
2018-05-27T04:22:01.405Z,4052.00
2018-05-27T04:23:01.581Z,4160.00
2018-05-27T04:24:01.759Z,4268.00
2018-05-27T04:25:01.931Z,4380.00
2018-05-27T04:26:02.136Z,4504.00
2018-05-27T04:27:02.323Z,4604.00
2018-05-27T04:28:02.506Z,4680.00
2018-05-27T04:29:02.681Z,4784.00
2018-05-27T04:30:02.869Z,4896.00
2018-05-27T04:31:03.041Z,5016.00
2018-05-27T04:32:03.205Z,5116.00
2018-05-27T04:33:03.405Z,5236.00
2018-05-27T04:34:03.605Z,5336.00
2018-05-27T04:35:03.752Z,5436.00
2018-05-27T04:36:03.946Z,5536.00
2018-05-27T04:37:04.136Z,5708.00
2018-05-27T04:38:04.314Z,6404.00
2018-05-27T04:39:04.494Z,7552.00
2018-05-27T04:40:04.735Z,9256.00
2018-05-27T04:41:04.860Z,10756.00
2018-05-27T04:42:05.043Z,11936.00
2018-05-27T04:43:05.236Z,15648.00
2018-05-27T04:44:05.409Z,18720.00
2018-05-27T04:45:05.600Z,21280.00
2018-05-27T04:46:05.782Z,20416.00
2018-05-27T04:47:05.973Z,21888.00
2018-05-27T04:48:06.162Z,19680.00
2018-05-27T04:49:06.340Z,19488.00
2018-05-27T04:50:06.530Z,20832.00
2018-05-27T04:51:06.716Z,21344.00
2018-05-27T04:52:06.904Z,22880.00
2018-05-27T04:53:07.095Z,24448.00
2018-05-27T04:54:07.288Z,24896.00
2018-05-27T04:55:07.452Z,26048.00
2018-05-27T04:56:07.638Z,24768.00
2018-05-27T04:57:07.828Z,27072.00
2018-05-27T04:58:08.013Z,29408.00
2018-05-27T04:59:08.256Z,30336.00
2018-05-27T05:00:08.390Z,31264.00
2018-05-27T05:01:08.580Z,31776.00
2018-05-27T05:02:08.777Z,31712.00
2018-05-27T05:03:08.965Z,32576.00
2018-05-27T05:04:09.155Z,33120.00
2018-05-27T05:05:09.323Z,33760.00
2018-05-27T05:06:09.528Z,34720.00
2018-05-27T05:07:09.703Z,35936.00
2018-05-27T05:08:09.887Z,36160.00
2018-05-27T05:09:10.079Z,36512.00
2018-05-27T05:10:10.286Z,36448.00
2018-05-27T05:11:10.465Z,36608.00
2018-05-27T05:12:10.637Z,37152.00
2018-05-27T05:13:10.838Z,37344.00
2018-05-27T05:14:11.008Z,38080.00
2018-05-27T05:15:11.231Z,38304.00
2018-05-27T05:16:11.390Z,37312.00
2018-05-27T05:17:11.580Z,38080.00
2018-05-27T05:18:11.764Z,39392.00
2018-05-27T05:19:11.944Z,38080.00
2018-05-27T05:20:12.147Z,30816.00
2018-05-27T05:21:12.339Z,18656.00
2018-05-27T05:22:12.589Z,13608.00
2018-05-27T05:23:12.730Z,14004.00
2018-05-27T05:24:12.910Z,13524.00
2018-05-27T05:25:13.099Z,13672.00
2018-05-27T05:26:13.276Z,13860.00
2018-05-27T05:27:13.468Z,15168.00
2018-05-27T05:28:13.689Z,15328.00
2018-05-27T05:29:13.827Z,14428.00
2018-05-27T05:30:14.023Z,15264.00
2018-05-27T05:31:14.209Z,14388.00
2018-05-27T05:32:14.407Z,14088.00
2018-05-27T05:33:14.580Z,15712.00
2018-05-27T05:34:14.777Z,13444.00
2018-05-27T05:35:14.966Z,10828.00
2018-05-27T05:36:15.157Z,7900.00
2018-05-27T05:37:15.347Z,7084.00
2018-05-27T05:38:15.536Z,6668.00
2018-05-27T05:39:15.729Z,6704.00
2018-05-27T05:40:15.918Z,6268.00
2018-05-27T05:41:16.112Z,6124.00
2018-05-27T05:42:16.314Z,6212.00
2018-05-27T05:43:16.505Z,7024.00
2018-05-27T05:44:16.682Z,6204.00
2018-05-27T05:45:16.867Z,6208.00
2018-05-27T05:46:17.051Z,6284.00
2018-05-27T05:47:17.235Z,6560.00
2018-05-27T05:48:17.434Z,6640.00
2018-05-27T05:49:17.651Z,7304.00
2018-05-27T05:50:17.809Z,13672.00
2018-05-27T05:51:18.022Z,15648.00
2018-05-27T05:52:18.169Z,6804.00
2018-05-27T05:53:18.363Z,6656.00
2018-05-27T05:54:18.543Z,6620.00
2018-05-27T05:55:18.730Z,6800.00
2018-05-27T05:56:18.912Z,7256.00
2018-05-27T05:57:19.104Z,7848.00
2018-05-27T05:58:19.295Z,9152.00
2018-05-27T05:59:19.474Z,11360.00
2018-05-27T06:00:19.665Z,9728.00
2018-05-27T06:01:19.855Z,10324.00
2018-05-27T06:02:20.041Z,21376.00
2018-05-27T06:03:20.225Z,33792.00
2018-05-27T06:04:20.408Z,23168.00
2018-05-27T06:05:20.623Z,12428.00
2018-05-27T06:06:20.785Z,12028.00
2018-05-27T06:07:20.979Z,11856.00
2018-05-27T06:08:21.175Z,21248.00
2018-05-27T06:09:21.349Z,16896.00
2018-05-27T06:10:21.539Z,16608.00
2018-05-27T06:11:21.731Z,17376.00
2018-05-27T06:12:21.919Z,16512.00
2018-05-27T06:13:22.106Z,15488.00
2018-05-27T06:14:22.308Z,13176.00
2018-05-27T06:15:22.487Z,12912.00
2018-05-27T06:16:22.674Z,13220.00
2018-05-27T06:17:22.875Z,15264.00
2018-05-27T06:18:23.065Z,17056.00
2018-05-27T06:19:23.253Z,21888.00
2018-05-27T06:20:23.443Z,21760.00
2018-05-27T06:21:23.633Z,16928.00
2018-05-27T06:22:23.822Z,16352.00
2018-05-27T06:23:24.011Z,15552.00
2018-05-27T06:24:24.196Z,13408.00
2018-05-27T06:25:24.396Z,13332.00
2018-05-27T06:26:24.583Z,12848.00
2018-05-27T06:27:24.772Z,13552.00
2018-05-27T06:28:24.973Z,13376.00
2018-05-27T06:29:25.665Z,13612.00
2018-05-27T06:30:25.365Z,13864.00
2018-05-27T06:31:25.555Z,13712.00
2018-05-27T06:32:25.739Z,14372.00
2018-05-27T06:33:25.969Z,15320.00
2018-05-27T06:34:26.117Z,15200.00
2018-05-27T06:35:26.306Z,15328.00
2018-05-27T06:36:26.499Z,15360.00
2018-05-27T06:37:26.704Z,15776.00
2018-05-27T06:38:26.874Z,15496.00
2018-05-27T06:39:27.058Z,16064.00
2018-05-27T06:40:27.248Z,15712.00
2018-05-27T06:41:27.447Z,15356.00
2018-05-27T06:42:27.634Z,15008.00
2018-05-27T06:43:27.823Z,15180.00
2018-05-27T06:44:28.013Z,14852.00
2018-05-27T06:45:28.202Z,16736.00
2018-05-27T06:46:28.436Z,18400.00
2018-05-27T06:47:28.584Z,21856.00
2018-05-27T06:48:28.779Z,23808.00
2018-05-27T06:49:28.960Z,23680.00
2018-05-27T06:50:29.161Z,22624.00
2018-05-27T06:51:29.346Z,22624.00
2018-05-27T06:52:29.542Z,18048.00
2018-05-27T06:53:29.737Z,15680.00
2018-05-27T06:54:29.919Z,15136.00
2018-05-27T06:55:30.141Z,15488.00
2018-05-27T06:56:30.320Z,24608.00
2018-05-27T06:57:30.478Z,15584.00
2018-05-27T06:58:30.671Z,14444.00
2018-05-27T06:59:30.859Z,14048.00
2018-05-27T07:00:31.050Z,13412.00
2018-05-27T07:01:31.260Z,13004.00
2018-05-27T07:02:31.432Z,12520.00
2018-05-27T07:03:32.114Z,12072.00
2018-05-27T07:04:31.841Z,12012.00
2018-05-27T07:05:31.990Z,12076.00
2018-05-27T07:06:32.178Z,12172.00
2018-05-27T07:07:32.363Z,12340.00
2018-05-27T07:08:32.552Z,12688.00
2018-05-27T07:09:32.755Z,12784.00
2018-05-27T07:10:32.931Z,13496.00
2018-05-27T07:11:33.167Z,14496.00
2018-05-27T07:12:33.310Z,19232.00
2018-05-27T07:13:33.500Z,23584.00
2018-05-27T07:14:33.707Z,34208.00
2018-05-27T07:15:33.880Z,52224.00
2018-05-27T07:16:34.069Z,65152.00
2018-05-27T07:17:34.252Z,58464.00
2018-05-27T07:18:34.468Z,60512.00
2018-05-27T07:19:34.630Z,58432.00
2018-05-27T07:20:34.820Z,69344.00
2018-05-27T07:21:35.031Z,68992.00
2018-05-27T07:22:35.197Z,71136.00
2018-05-27T07:23:35.400Z,70144.00
2018-05-27T07:24:35.585Z,72032.00
2018-05-27T07:25:35.774Z,70880.00
2018-05-27T07:26:35.963Z,71296.00
2018-05-27T07:27:36.193Z,70080.00
2018-05-27T07:28:36.350Z,68704.00
2018-05-27T07:29:36.540Z,68256.00
2018-05-27T07:30:36.753Z,72032.00
2018-05-27T07:31:36.921Z,72416.00
2018-05-27T07:32:37.110Z,71840.00
2018-05-27T07:33:37.293Z,71744.00
2018-05-27T07:34:37.546Z,69248.00
2018-05-27T07:35:37.688Z,67040.00
2018-05-27T07:36:37.873Z,48512.00
2018-05-27T07:37:38.071Z,40736.00
2018-05-27T07:38:38.257Z,46752.00
2018-05-27T07:39:38.453Z,40736.00
2018-05-27T07:40:38.672Z,48736.00
2018-05-27T07:41:38.851Z,56288.00
2018-05-27T07:42:39.025Z,54624.00
2018-05-27T07:43:39.220Z,31232.00
2018-05-27T07:44:39.417Z,25536.00
2018-05-27T07:45:39.615Z,31424.00
2018-05-27T07:46:39.860Z,20544.00
2018-05-27T07:47:40.007Z,30784.00
2018-05-27T07:48:40.214Z,18752.00
2018-05-27T07:49:40.388Z,19456.00
2018-05-27T07:50:40.580Z,18688.00
2018-05-27T07:51:40.771Z,15532.00
2018-05-27T07:52:40.973Z,17632.00
2018-05-27T07:53:41.165Z,15488.00
2018-05-27T07:54:41.369Z,16352.00
2018-05-27T07:55:41.544Z,18336.00
2018-05-27T07:56:41.766Z,16256.00
2018-05-27T07:57:41.948Z,16608.00
2018-05-27T07:58:42.127Z,15628.00
2018-05-27T07:59:42.326Z,12732.00
2018-05-27T08:00:42.522Z,11336.00
2018-05-27T08:01:42.706Z,12676.00
2018-05-27T08:02:42.899Z,10956.00
2018-05-27T08:03:43.115Z,10148.00
2018-05-27T08:04:43.267Z,10016.00
2018-05-27T08:05:43.467Z,9272.00
2018-05-27T08:06:43.649Z,8888.00
2018-05-27T08:07:43.845Z,8880.00
2018-05-27T08:08:44.034Z,8780.00
2018-05-27T08:09:44.230Z,8236.00
2018-05-27T08:10:44.440Z,7844.00
2018-05-27T08:11:44.613Z,7644.00
2018-05-27T08:12:44.810Z,7408.00
2018-05-27T08:13:45.000Z,7172.00
2018-05-27T08:14:45.193Z,6924.00
2018-05-27T08:15:45.396Z,6932.00
2018-05-27T08:16:45.569Z,6708.00
2018-05-27T08:17:45.760Z,6696.00
2018-05-27T08:18:45.954Z,6608.00
2018-05-27T08:19:46.167Z,6832.00
2018-05-27T08:20:46.320Z,6868.00
2018-05-27T08:21:46.510Z,7204.00
2018-05-27T08:22:46.704Z,7324.00
2018-05-27T08:23:46.893Z,7508.00
2018-05-27T08:24:47.081Z,7536.00
2018-05-27T08:25:47.268Z,7340.00
2018-05-27T08:26:47.457Z,7144.00
2018-05-27T08:27:47.656Z,6936.00
2018-05-27T08:28:47.857Z,6640.00
2018-05-27T08:29:48.029Z,6500.00
2018-05-27T08:30:48.218Z,6436.00
2018-05-27T08:31:48.405Z,6512.00
2018-05-27T08:32:48.590Z,6544.00
2018-05-27T08:33:48.792Z,6672.00
2018-05-27T08:34:48.981Z,6764.00
2018-05-27T08:35:49.189Z,7028.00
2018-05-27T08:36:49.368Z,7320.00
2018-05-27T08:37:49.561Z,7680.00
2018-05-27T08:38:49.753Z,8064.00
2018-05-27T08:39:49.967Z,8408.00
2018-05-27T08:40:50.134Z,8820.00
2018-05-27T08:41:50.319Z,9260.00
2018-05-27T08:42:50.500Z,9552.00
2018-05-27T08:43:50.707Z,9812.00
2018-05-27T08:44:50.911Z,10152.00
2018-05-27T08:45:51.068Z,10204.00
2018-05-27T08:46:51.262Z,10244.00
2018-05-27T08:47:51.450Z,10268.00
2018-05-27T08:48:51.641Z,10240.00
2018-05-27T08:49:51.857Z,10360.00
2018-05-27T08:50:52.029Z,11180.00
2018-05-27T08:51:52.222Z,12404.00
2018-05-27T08:52:52.412Z,11364.00
2018-05-27T08:53:52.620Z,13888.00
2018-05-27T08:54:52.788Z,13008.00
2018-05-27T08:55:52.979Z,11788.00
2018-05-27T08:56:53.159Z,11528.00
2018-05-27T08:57:53.344Z,12404.00
2018-05-27T08:58:53.536Z,11288.00
2018-05-27T08:59:53.728Z,10920.00
2018-05-27T09:00:53.915Z,11124.00
2018-05-27T09:01:54.114Z,11876.00
2018-05-27T09:02:54.285Z,11128.00
2018-05-27T09:03:54.545Z,20224.00
2018-05-27T09:04:54.712Z,22208.00
2018-05-27T09:05:54.905Z,29696.00
2018-05-27T09:06:55.071Z,26112.00
2018-05-27T09:07:55.282Z,43936.00
2018-05-27T09:08:55.517Z,48000.00
2018-05-27T09:09:55.654Z,44288.00
2018-05-27T09:10:55.866Z,52288.00
2018-05-27T09:11:56.021Z,30080.00
2018-05-27T09:12:56.208Z,20576.00
2018-05-27T09:13:56.465Z,16768.00
2018-05-27T09:14:56.716Z,12860.00
2018-05-27T09:15:56.823Z,14752.00
2018-05-27T09:16:57.044Z,10276.00
2018-05-27T09:17:57.292Z,9340.00
2018-05-27T09:18:57.436Z,21696.00
2018-05-27T09:19:57.607Z,11224.00
2018-05-27T09:20:57.796Z,11372.00
2018-05-27T09:21:58.066Z,13320.00
2018-05-27T09:22:58.344Z,14240.00
2018-05-27T09:23:58.391Z,8908.00
2018-05-27T09:24:58.607Z,11988.00
2018-05-27T09:25:58.782Z,11068.00
2018-05-27T09:26:58.979Z,9264.00
2018-05-27T09:27:59.172Z,12228.00
2018-05-27T09:28:59.363Z,10720.00
2018-05-27T09:29:59.575Z,11960.00
2018-05-27T09:30:59.781Z,8744.00
2018-05-27T09:31:59.915Z,11744.00
2018-05-27T09:33:00.193Z,10560.00
2018-05-27T09:34:00.330Z,9232.00
2018-05-27T09:35:00.552Z,9368.00
2018-05-27T09:36:00.681Z,7332.00
2018-05-27T09:37:00.848Z,7016.00
2018-05-27T09:38:01.076Z,6580.00
2018-05-27T09:39:01.297Z,6400.00
2018-05-27T09:40:01.436Z,6404.00
2018-05-27T09:41:01.661Z,6612.00
2018-05-27T09:42:01.884Z,6544.00
2018-05-27T09:43:02.012Z,6340.00
2018-05-27T09:44:02.177Z,6304.00
2018-05-27T09:45:02.376Z,6564.00
2018-05-27T09:46:02.555Z,6324.00
2018-05-27T09:47:02.897Z,6656.00
2018-05-27T09:48:02.928Z,6260.00
2018-05-27T09:49:03.101Z,6556.00
2018-05-27T09:50:03.340Z,5484.00
2018-05-27T09:51:03.555Z,5784.00
2018-05-27T09:52:03.723Z,4988.00
2018-05-27T09:53:03.885Z,5108.00
2018-05-27T09:54:04.097Z,5764.00
2018-05-27T09:55:04.370Z,5928.00
2018-05-27T09:56:04.494Z,6372.00
2018-05-27T09:57:04.667Z,5960.00
2018-05-27T09:58:04.872Z,5916.00
2018-05-27T09:59:05.735Z,5740.00
2018-05-27T10:00:05.253Z,5760.00
2018-05-27T10:01:05.382Z,5720.00
2018-05-27T10:02:05.539Z,5400.00
2018-05-27T10:03:05.734Z,5356.00
2018-05-27T10:04:05.972Z,5424.00
2018-05-27T10:05:06.130Z,5296.00
2018-05-27T10:06:06.337Z,5256.00
2018-05-27T10:07:06.530Z,5660.00
2018-05-27T10:08:06.724Z,5208.00
2018-05-27T10:09:06.917Z,5196.00
2018-05-27T10:10:07.089Z,5200.00
2018-05-27T10:11:07.339Z,5112.00
2018-05-27T10:12:07.493Z,5192.00
2018-05-27T10:13:07.699Z,5160.00
2018-05-27T10:14:07.856Z,5132.00
2018-05-27T10:15:08.042Z,5148.00
2018-05-27T10:16:08.302Z,5100.00
2018-05-27T10:17:08.414Z,5184.00
2018-05-27T10:18:08.626Z,5112.00
2018-05-27T10:19:08.815Z,5088.00
2018-05-27T10:20:08.996Z,5048.00
2018-05-27T10:21:09.420Z,5204.00
2018-05-27T10:22:09.398Z,4892.00
2018-05-27T10:23:09.755Z,4924.00
2018-05-27T10:24:09.842Z,4872.00
2018-05-27T10:25:10.011Z,4808.00
2018-05-27T10:26:10.291Z,4708.00
2018-05-27T10:27:10.388Z,4676.00
2018-05-27T10:28:10.580Z,4644.00
2018-05-27T10:29:10.781Z,4680.00
2018-05-27T10:30:10.975Z,4664.00
2018-05-27T10:31:11.170Z,4620.00
2018-05-27T10:32:11.429Z,4736.00
2018-05-27T10:33:11.636Z,4632.00
2018-05-27T10:34:11.759Z,4640.00
2018-05-27T10:35:16.779Z,4604.00
2018-05-27T10:36:12.243Z,4596.00
2018-05-27T10:37:12.421Z,4524.00
2018-05-27T10:38:12.570Z,4584.00
2018-05-27T10:39:12.823Z,4540.00
2018-05-27T10:40:12.976Z,4532.00
2018-05-27T10:41:13.209Z,4584.00
2018-05-27T10:42:13.359Z,4560.00
2018-05-27T10:43:13.662Z,4604.00
2018-05-27T10:44:13.793Z,4712.00
2018-05-27T10:45:13.978Z,4524.00
2018-05-27T10:46:14.280Z,4416.00
2018-05-27T10:47:14.388Z,4496.00
2018-05-27T10:48:14.555Z,4416.00
2018-05-27T10:49:14.748Z,4336.00
2018-05-27T10:50:14.943Z,4316.00
2018-05-27T10:51:15.159Z,4356.00
2018-05-27T10:52:15.368Z,4340.00
2018-05-27T10:53:15.514Z,4260.00
2018-05-27T10:54:15.692Z,4292.00
2018-05-27T10:55:15.874Z,4216.00
2018-05-27T10:56:16.061Z,4132.00
2018-05-27T10:57:16.271Z,4132.00
2018-05-27T10:58:16.529Z,4112.00
2018-05-27T10:59:16.641Z,4176.00
2018-05-27T11:00:16.830Z,4220.00
2018-05-27T11:01:17.031Z,4340.00
2018-05-27T11:02:17.254Z,4188.00
2018-05-27T11:03:17.428Z,4080.00
2018-05-27T11:04:17.621Z,3972.00
2018-05-27T11:05:17.820Z,3940.00
2018-05-27T11:06:18.004Z,3896.00
2018-05-27T11:07:18.189Z,3876.00
2018-05-27T11:08:18.382Z,3860.00
2018-05-27T11:09:18.617Z,3836.00
2018-05-27T11:10:18.834Z,3872.00
2018-05-27T11:11:19.044Z,3824.00
2018-05-27T11:12:19.093Z,3784.00
2018-05-27T11:13:19.272Z,3800.00
2018-05-27T11:14:19.458Z,3756.00
2018-05-27T11:15:19.638Z,3776.00
2018-05-27T11:16:19.855Z,3732.00
2018-05-27T11:17:20.042Z,3712.00
2018-05-27T11:18:20.257Z,3732.00
2018-05-27T11:19:20.421Z,3724.00
2018-05-27T11:20:20.623Z,3680.00
2018-05-27T11:21:20.800Z,3692.00
2018-05-27T11:22:20.988Z,3748.00
2018-05-27T11:23:21.221Z,3760.00
2018-05-27T11:24:21.399Z,3828.00
2018-05-27T11:25:21.650Z,3872.00
2018-05-27T11:26:21.701Z,3664.00
2018-05-27T11:27:21.985Z,3644.00
2018-05-27T11:28:22.065Z,3528.00
2018-05-27T11:29:22.294Z,3496.00
2018-05-27T11:30:22.468Z,3512.00
2018-05-27T11:31:22.666Z,3488.00
2018-05-27T11:32:22.877Z,3524.00
2018-05-27T11:33:23.047Z,3516.00
2018-05-27T11:34:23.242Z,3552.00
2018-05-27T11:35:23.482Z,3528.00
2018-05-27T11:36:23.610Z,3572.00
2018-05-27T11:37:23.863Z,3708.00
2018-05-27T11:38:24.072Z,3860.00
2018-05-27T11:39:24.220Z,3964.00
2018-05-27T11:40:24.502Z,4156.00
2018-05-27T11:41:24.744Z,4164.00
2018-05-27T11:42:24.877Z,3996.00
2018-05-27T11:43:24.995Z,3848.00
2018-05-27T11:44:25.256Z,3732.00
2018-05-27T11:45:25.377Z,3636.00
2018-05-27T11:46:25.622Z,3600.00
2018-05-27T11:47:25.822Z,3528.00
2018-05-27T11:48:26.018Z,3560.00
2018-05-27T11:49:26.273Z,3692.00
2018-05-27T11:50:26.466Z,3568.00
2018-05-27T11:51:26.632Z,3576.00
2018-05-27T11:52:26.815Z,3612.00
2018-05-27T11:53:26.976Z,3644.00
2018-05-27T11:54:27.204Z,3692.00
2018-05-27T11:55:27.367Z,3760.00
2018-05-27T11:56:27.522Z,3796.00
2018-05-27T11:57:27.716Z,3808.00
2018-05-27T11:58:27.909Z,3832.00
2018-05-27T11:59:28.094Z,3912.00
2018-05-27T12:00:28.418Z,4004.00
2018-05-27T12:01:28.517Z,3928.00
2018-05-27T12:02:28.686Z,4020.00
2018-05-27T12:03:28.877Z,3852.00
2018-05-27T12:04:29.082Z,3880.00
2018-05-27T12:05:29.260Z,4116.00
2018-05-27T12:06:29.441Z,4508.00
2018-05-27T12:07:29.634Z,4960.00
2018-05-27T12:08:29.862Z,4648.00
2018-05-27T12:09:30.145Z,4600.00
2018-05-27T12:10:30.231Z,4648.00
2018-05-27T12:11:30.427Z,4664.00
2018-05-27T12:12:30.622Z,4928.00
2018-05-27T12:13:30.863Z,4824.00
2018-05-27T12:14:31.004Z,5016.00
2018-05-27T12:15:31.208Z,5276.00
2018-05-27T12:16:31.373Z,5412.00
2018-05-27T12:17:31.698Z,5736.00
2018-05-27T12:18:31.757Z,5796.00